sensor_id;sensor_type;location;lat;lon;timestamp;pressure;altitude;pressure_sealevel;temperature;humidity
12897;BME280;6516;35.028;32.372;2023-01-31T00:01:46;99236.94;;;11.01;87.97
12897;BME280;6516;35.028;32.372;2023-01-31T00:04:14;99234.09;;;11.07;88.13
12897;BME280;6516;35.028;32.372;2023-01-31T00:06:43;99234.75;;;11.14;86.67
12897;BME280;6516;35.028;32.372;2023-01-31T00:09:15;99229.31;;;11.18;85.26
12897;BME280;6516;35.028;32.372;2023-01-31T00:11:45;99234.41;;;11.25;85.50
12897;BME280;6516;35.028;32.372;2023-01-31T00:14:16;99235.78;;;11.35;85.06
12897;BME280;6516;35.028;32.372;2023-01-31T00:16:46;99231.25;;;11.38;84.43
12897;BME280;6516;35.028;32.372;2023-01-31T00:19:14;99232.13;;;11.39;84.52
12897;BME280;6516;35.028;32.372;2023-01-31T00:21:42;99218.88;;;11.40;84.05
12897;BME280;6516;35.028;32.372;2023-01-31T00:24:11;99228.53;;;11.41;84.45
12897;BME280;6516;35.028;32.372;2023-01-31T00:26:39;99222.97;;;11.49;82.87
12897;BME280;6516;35.028;32.372;2023-01-31T00:29:07;99230.69;;;11.53;82.00
12897;BME280;6516;35.028;32.372;2023-01-31T00:31:36;99215.75;;;11.54;82.17
12897;BME280;6516;35.028;32.372;2023-01-31T00:34:04;99217.69;;;11.49;81.62
12897;BME280;6516;35.028;32.372;2023-01-31T00:36:33;99213.84;;;11.57;82.28
12897;BME280;6516;35.028;32.372;2023-01-31T00:39:04;99203.13;;;11.63;80.54
12897;BME280;6516;35.028;32.372;2023-01-31T00:41:35;99202.94;;;11.68;79.93
12897;BME280;6516;35.028;32.372;2023-01-31T00:44:04;99201.91;;;11.72;78.72
12897;BME280;6516;35.028;32.372;2023-01-31T00:46:32;99185.06;;;11.76;76.92
12897;BME280;6516;35.028;32.372;2023-01-31T00:49:02;99188.50;;;11.78;76.57
12897;BME280;6516;35.028;32.372;2023-01-31T00:51:30;99178.09;;;11.75;77.14
12897;BME280;6516;35.028;32.372;2023-01-31T00:53:58;99185.19;;;11.73;76.13
12897;BME280;6516;35.028;32.372;2023-01-31T00:56:25;99178.44;;;11.66;76.38
12897;BME280;6516;35.028;32.372;2023-01-31T00:58:53;99171.41;;;11.65;75.30
12897;BME280;6516;35.028;32.372;2023-01-31T01:01:23;99171.56;;;11.62;74.55
12897;BME280;6516;35.028;32.372;2023-01-31T01:03:52;99169.00;;;11.59;74.27
12897;BME280;6516;35.028;32.372;2023-01-31T01:06:23;99176.31;;;11.51;74.32
12897;BME280;6516;35.028;32.372;2023-01-31T01:08:51;99170.84;;;11.57;73.68
12897;BME280;6516;35.028;32.372;2023-01-31T01:11:21;99174.38;;;11.56;74.14
12897;BME280;6516;35.028;32.372;2023-01-31T01:13:52;99162.06;;;11.56;74.72
12897;BME280;6516;35.028;32.372;2023-01-31T01:16:21;99164.66;;;11.58;72.64
12897;BME280;6516;35.028;32.372;2023-01-31T01:18:51;99163.91;;;11.54;71.72
12897;BME280;6516;35.028;32.372;2023-01-31T01:21:23;99171.63;;;11.59;70.64
12897;BME280;6516;35.028;32.372;2023-01-31T01:23:54;99169.91;;;11.58;71.22
12897;BME280;6516;35.028;32.372;2023-01-31T01:26:24;99170.75;;;11.58;71.67
12897;BME280;6516;35.028;32.372;2023-01-31T01:28:55;99169.00;;;11.59;70.15
12897;BME280;6516;35.028;32.372;2023-01-31T01:31:24;99171.72;;;11.56;69.86
12897;BME280;6516;35.028;32.372;2023-01-31T01:33:56;99158.50;;;11.57;69.73
12897;BME280;6516;35.028;32.372;2023-01-31T01:36:26;99159.31;;;11.59;68.91
12897;BME280;6516;35.028;32.372;2023-01-31T01:38:55;99162.66;;;11.64;69.00
12897;BME280;6516;35.028;32.372;2023-01-31T01:41:24;99157.44;;;11.63;67.06
12897;BME280;6516;35.028;32.372;2023-01-31T01:43:53;99168.09;;;11.60;66.42
12897;BME280;6516;35.028;32.372;2023-01-31T01:46:25;99164.59;;;11.59;66.46
12897;BME280;6516;35.028;32.372;2023-01-31T01:48:57;99163.78;;;11.57;66.32
12897;BME280;6516;35.028;32.372;2023-01-31T01:51:29;99160.56;;;11.49;66.64
12897;BME280;6516;35.028;32.372;2023-01-31T01:54:00;99152.84;;;11.45;66.75
12897;BME280;6516;35.028;32.372;2023-01-31T01:56:35;99151.28;;;11.39;68.12
12897;BME280;6516;35.028;32.372;2023-01-31T01:59:06;99160.34;;;11.32;68.16
12897;BME280;6516;35.028;32.372;2023-01-31T02:01:37;99157.06;;;11.26;68.40
12897;BME280;6516;35.028;32.372;2023-01-31T02:04:06;99154.63;;;11.19;69.66
12897;BME280;6516;35.028;32.372;2023-01-31T02:06:38;99156.72;;;11.12;70.03
12897;BME280;6516;35.028;32.372;2023-01-31T02:09:08;99159.44;;;11.08;71.42
12897;BME280;6516;35.028;32.372;2023-01-31T02:11:42;99149.78;;;11.09;72.32
12897;BME280;6516;35.028;32.372;2023-01-31T02:14:10;99145.19;;;11.14;73.50
12897;BME280;6516;35.028;32.372;2023-01-31T02:16:38;99138.69;;;11.24;74.11
12897;BME280;6516;35.028;32.372;2023-01-31T02:19:11;99139.22;;;11.34;75.65
12897;BME280;6516;35.028;32.372;2023-01-31T02:22:11;99140.75;;;11.39;77.15
12897;BME280;6516;35.028;32.372;2023-01-31T02:25:09;99145.72;;;11.47;77.27
12897;BME280;6516;35.028;32.372;2023-01-31T02:28:19;99134.97;;;11.53;75.63
12897;BME280;6516;35.028;32.372;2023-01-31T02:31:31;99137.34;;;11.59;72.95
12897;BME280;6516;35.028;32.372;2023-01-31T02:34:42;99129.25;;;11.65;69.31
12897;BME280;6516;35.028;32.372;2023-01-31T02:37:19;99123.00;;;11.67;68.70
12897;BME280;6516;35.028;32.372;2023-01-31T02:40:00;99122.09;;;11.68;66.59
12897;BME280;6516;35.028;32.372;2023-01-31T02:42:36;99118.53;;;11.69;64.69
12897;BME280;6516;35.028;32.372;2023-01-31T02:45:17;99125.72;;;11.66;64.18
12897;BME280;6516;35.028;32.372;2023-01-31T02:48:01;99123.06;;;11.66;64.64
12897;BME280;6516;35.028;32.372;2023-01-31T02:50:39;99124.78;;;11.67;64.38
12897;BME280;6516;35.028;32.372;2023-01-31T02:53:15;99125.56;;;11.69;64.83
12897;BME280;6516;35.028;32.372;2023-01-31T02:55:52;99128.00;;;11.75;65.42
12897;BME280;6516;35.028;32.372;2023-01-31T02:58:45;99121.16;;;11.69;66.39
12897;BME280;6516;35.028;32.372;2023-01-31T03:01:20;99119.72;;;11.84;64.51
12897;BME280;6516;35.028;32.372;2023-01-31T03:03:51;99112.66;;;11.84;64.61
12897;BME280;6516;35.028;32.372;2023-01-31T03:06:51;99111.72;;;11.85;63.91
12897;BME280;6516;35.028;32.372;2023-01-31T03:09:36;99108.91;;;11.90;63.38
12897;BME280;6516;35.028;32.372;2023-01-31T03:15:26;99109.84;;;11.89;63.60
12897;BME280;6516;35.028;32.372;2023-01-31T03:18:17;99114.19;;;11.90;64.19
12897;BME280;6516;35.028;32.372;2023-01-31T03:20:52;99118.59;;;11.89;64.04
12897;BME280;6516;35.028;32.372;2023-01-31T03:23:27;99111.44;;;11.93;64.13
12897;BME280;6516;35.028;32.372;2023-01-31T03:26:00;99113.78;;;12.00;63.33
12897;BME280;6516;35.028;32.372;2023-01-31T03:28:32;99111.13;;;12.00;63.59
12897;BME280;6516;35.028;32.372;2023-01-31T03:31:06;99108.25;;;12.06;64.59
12897;BME280;6516;35.028;32.372;2023-01-31T03:33:41;99105.28;;;12.14;65.33
12897;BME280;6516;35.028;32.372;2023-01-31T03:36:17;99109.03;;;12.08;67.40
12897;BME280;6516;35.028;32.372;2023-01-31T03:38:57;99122.84;;;12.15;69.57
12897;BME280;6516;35.028;32.372;2023-01-31T03:41:44;99122.91;;;12.13;70.24
12897;BME280;6516;35.028;32.372;2023-01-31T03:44:21;99131.81;;;12.11;70.27
12897;BME280;6516;35.028;32.372;2023-01-31T03:46:57;99117.75;;;12.10;69.77
12897;BME280;6516;35.028;32.372;2023-01-31T03:49:28;99118.75;;;12.08;70.57
12897;BME280;6516;35.028;32.372;2023-01-31T03:52:00;99121.91;;;11.94;70.48
12897;BME280;6516;35.028;32.372;2023-01-31T03:54:38;99120.03;;;11.98;68.20
12897;BME280;6516;35.028;32.372;2023-01-31T03:57:14;99117.09;;;12.05;66.79
12897;BME280;6516;35.028;32.372;2023-01-31T03:59:48;99102.03;;;12.07;67.56
12897;BME280;6516;35.028;32.372;2023-01-31T04:02:20;99103.84;;;12.07;65.49
12897;BME280;6516;35.028;32.372;2023-01-31T04:04:54;99110.94;;;12.05;64.93
12897;BME280;6516;35.028;32.372;2023-01-31T04:07:25;99102.66;;;12.14;65.15
12897;BME280;6516;35.028;32.372;2023-01-31T04:09:54;99107.81;;;12.17;64.88
12897;BME280;6516;35.028;32.372;2023-01-31T04:12:22;99104.25;;;12.18;64.63
12897;BME280;6516;35.028;32.372;2023-01-31T04:14:49;99112.16;;;12.18;65.74
12897;BME280;6516;35.028;32.372;2023-01-31T04:17:17;99113.75;;;12.22;65.96
12897;BME280;6516;35.028;32.372;2023-01-31T04:19:45;99113.03;;;12.18;66.78
12897;BME280;6516;35.028;32.372;2023-01-31T04:22:12;99115.84;;;12.14;66.40
12897;BME280;6516;35.028;32.372;2023-01-31T04:24:40;99124.38;;;12.20;63.85
12897;BME280;6516;35.028;32.372;2023-01-31T04:27:09;99115.41;;;12.24;63.10
12897;BME280;6516;35.028;32.372;2023-01-31T04:29:37;99112.38;;;12.13;62.63
12897;BME280;6516;35.028;32.372;2023-01-31T04:32:05;99115.84;;;12.14;61.65
12897;BME280;6516;35.028;32.372;2023-01-31T04:34:33;99118.63;;;12.11;61.86
12897;BME280;6516;35.028;32.372;2023-01-31T04:37:01;99118.63;;;12.11;61.72
12897;BME280;6516;35.028;32.372;2023-01-31T04:39:28;99120.81;;;12.00;61.62
12897;BME280;6516;35.028;32.372;2023-01-31T04:41:56;99114.94;;;11.93;60.60
12897;BME280;6516;35.028;32.372;2023-01-31T04:44:26;99117.50;;;11.95;59.71
12897;BME280;6516;35.028;32.372;2023-01-31T04:46:53;99120.94;;;11.97;59.96
12897;BME280;6516;35.028;32.372;2023-01-31T04:49:21;99118.19;;;12.00;59.03
12897;BME280;6516;35.028;32.372;2023-01-31T04:51:49;99127.13;;;11.96;57.87
12897;BME280;6516;35.028;32.372;2023-01-31T04:54:16;99134.38;;;11.91;57.21
12897;BME280;6516;35.028;32.372;2023-01-31T04:56:44;99129.91;;;11.93;57.70
12897;BME280;6516;35.028;32.372;2023-01-31T04:59:12;99131.84;;;11.88;58.13
12897;BME280;6516;35.028;32.372;2023-01-31T05:01:41;99131.72;;;11.91;58.39
12897;BME280;6516;35.028;32.372;2023-01-31T05:04:09;99142.22;;;11.92;59.66
12897;BME280;6516;35.028;32.372;2023-01-31T05:06:37;99132.56;;;11.93;60.66
12897;BME280;6516;35.028;32.372;2023-01-31T05:09:05;99126.19;;;11.97;61.21
12897;BME280;6516;35.028;32.372;2023-01-31T05:11:33;99126.09;;;12.00;61.64
12897;BME280;6516;35.028;32.372;2023-01-31T05:14:01;99135.72;;;12.01;61.50
12897;BME280;6516;35.028;32.372;2023-01-31T05:16:28;99138.34;;;12.01;60.75
12897;BME280;6516;35.028;32.372;2023-01-31T05:18:58;99141.88;;;12.01;60.98
12897;BME280;6516;35.028;32.372;2023-01-31T05:21:25;99139.03;;;12.06;59.71
12897;BME280;6516;35.028;32.372;2023-01-31T05:23:53;99153.97;;;12.07;60.84
12897;BME280;6516;35.028;32.372;2023-01-31T05:26:21;99145.97;;;12.08;60.46
12897;BME280;6516;35.028;32.372;2023-01-31T05:28:51;99152.16;;;12.07;59.45
12897;BME280;6516;35.028;32.372;2023-01-31T05:31:19;99143.41;;;12.07;57.93
12897;BME280;6516;35.028;32.372;2023-01-31T05:33:47;99148.06;;;12.00;57.44
12897;BME280;6516;35.028;32.372;2023-01-31T05:36:16;99149.72;;;12.03;58.26
12897;BME280;6516;35.028;32.372;2023-01-31T05:38:44;99150.66;;;12.02;58.10
12897;BME280;6516;35.028;32.372;2023-01-31T05:41:12;99146.34;;;11.99;56.47
12897;BME280;6516;35.028;32.372;2023-01-31T05:43:40;99150.13;;;11.92;56.38
12897;BME280;6516;35.028;32.372;2023-01-31T05:46:08;99151.00;;;11.93;56.25
12897;BME280;6516;35.028;32.372;2023-01-31T05:48:35;99154.69;;;11.89;57.19
12897;BME280;6516;35.028;32.372;2023-01-31T05:51:04;99164.94;;;11.96;58.47
12897;BME280;6516;35.028;32.372;2023-01-31T05:53:33;99165.84;;;11.95;60.15
12897;BME280;6516;35.028;32.372;2023-01-31T05:56:01;99157.81;;;11.98;60.68
12897;BME280;6516;35.028;32.372;2023-01-31T05:58:28;99156.91;;;11.99;60.45
12897;BME280;6516;35.028;32.372;2023-01-31T06:00:56;99157.31;;;12.10;59.95
12897;BME280;6516;35.028;32.372;2023-01-31T06:03:24;99155.19;;;12.20;59.83
12897;BME280;6516;35.028;32.372;2023-01-31T06:05:52;99156.66;;;12.27;60.40
12897;BME280;6516;35.028;32.372;2023-01-31T06:08:20;99158.63;;;12.22;59.69
12897;BME280;6516;35.028;32.372;2023-01-31T06:10:49;99165.75;;;12.20;57.77
12897;BME280;6516;35.028;32.372;2023-01-31T06:13:17;99164.50;;;12.28;57.53
12897;BME280;6516;35.028;32.372;2023-01-31T06:15:44;99173.09;;;12.33;58.65
12897;BME280;6516;35.028;32.372;2023-01-31T06:18:12;99174.31;;;12.46;58.35
12897;BME280;6516;35.028;32.372;2023-01-31T06:20:40;99162.50;;;12.55;58.62
12897;BME280;6516;35.028;32.372;2023-01-31T06:23:08;99167.69;;;12.58;59.24
12897;BME280;6516;35.028;32.372;2023-01-31T06:25:36;99178.13;;;12.61;59.29
12897;BME280;6516;35.028;32.372;2023-01-31T06:28:05;99184.97;;;12.65;58.35
12897;BME280;6516;35.028;32.372;2023-01-31T06:30:33;99185.16;;;12.60;57.42
12897;BME280;6516;35.028;32.372;2023-01-31T06:33:01;99182.41;;;12.63;57.57
12897;BME280;6516;35.028;32.372;2023-01-31T06:35:29;99183.91;;;12.69;57.86
12897;BME280;6516;35.028;32.372;2023-01-31T06:37:58;99182.63;;;12.79;58.05
12897;BME280;6516;35.028;32.372;2023-01-31T06:40:26;99180.66;;;12.84;57.71
12897;BME280;6516;35.028;32.372;2023-01-31T06:42:54;99175.38;;;12.84;56.67
12897;BME280;6516;35.028;32.372;2023-01-31T06:45:23;99180.31;;;12.91;56.67
12897;BME280;6516;35.028;32.372;2023-01-31T06:47:51;99180.50;;;12.87;56.48
12897;BME280;6516;35.028;32.372;2023-01-31T06:50:18;99180.50;;;12.87;56.57
12897;BME280;6516;35.028;32.372;2023-01-31T06:52:46;99175.50;;;12.81;57.36
12897;BME280;6516;35.028;32.372;2023-01-31T06:55:17;99188.38;;;12.88;57.51
12897;BME280;6516;35.028;32.372;2023-01-31T06:57:45;99189.91;;;12.94;57.61
12897;BME280;6516;35.028;32.372;2023-01-31T07:00:14;99187.38;;;12.91;57.21
12897;BME280;6516;35.028;32.372;2023-01-31T07:02:46;99190.06;;;12.89;57.24
12897;BME280;6516;35.028;32.372;2023-01-31T07:05:14;99179.97;;;13.00;55.88
12897;BME280;6516;35.028;32.372;2023-01-31T07:07:42;99183.13;;;13.28;54.68
12897;BME280;6516;35.028;32.372;2023-01-31T07:10:11;99188.41;;;13.67;54.99
12897;BME280;6516;35.028;32.372;2023-01-31T07:12:39;99189.06;;;13.90;53.67
12897;BME280;6516;35.028;32.372;2023-01-31T07:15:08;99191.34;;;13.98;54.41
12897;BME280;6516;35.028;32.372;2023-01-31T07:17:37;99190.13;;;14.05;55.74
12897;BME280;6516;35.028;32.372;2023-01-31T07:20:07;99194.34;;;14.09;55.96
12897;BME280;6516;35.028;32.372;2023-01-31T07:22:36;99197.50;;;13.98;53.58
12897;BME280;6516;35.028;32.372;2023-01-31T07:25:04;99195.06;;;13.75;53.29
12897;BME280;6516;35.028;32.372;2023-01-31T07:27:33;99203.50;;;13.65;53.35
12897;BME280;6516;35.028;32.372;2023-01-31T07:30:00;99199.03;;;13.65;55.05
12897;BME280;6516;35.028;32.372;2023-01-31T07:32:28;99194.88;;;13.60;54.77
12897;BME280;6516;35.028;32.372;2023-01-31T07:34:56;99186.47;;;13.52;53.80
12897;BME280;6516;35.028;32.372;2023-01-31T07:37:26;99191.91;;;13.86;53.75
12897;BME280;6516;35.028;32.372;2023-01-31T07:39:55;99184.25;;;13.98;51.95
12897;BME280;6516;35.028;32.372;2023-01-31T07:42:23;99190.03;;;14.26;51.25
12897;BME280;6516;35.028;32.372;2023-01-31T07:44:50;99190.22;;;14.40;50.29
12897;BME280;6516;35.028;32.372;2023-01-31T07:47:18;99203.28;;;14.79;49.58
12897;BME280;6516;35.028;32.372;2023-01-31T07:49:46;99199.06;;;15.09;47.80
12897;BME280;6516;35.028;32.372;2023-01-31T07:52:15;99196.03;;;15.33;46.25
12897;BME280;6516;35.028;32.372;2023-01-31T07:54:44;99196.91;;;15.51;45.29
12897;BME280;6516;35.028;32.372;2023-01-31T07:57:12;99194.63;;;15.76;45.83
12897;BME280;6516;35.028;32.372;2023-01-31T07:59:42;99187.59;;;16.07;43.75
12897;BME280;6516;35.028;32.372;2023-01-31T08:02:11;99184.91;;;16.23;44.23
12897;BME280;6516;35.028;32.372;2023-01-31T08:04:56;99193.69;;;16.56;44.02
12897;BME280;6516;35.028;32.372;2023-01-31T08:07:24;99187.16;;;16.61;44.07
12897;BME280;6516;35.028;32.372;2023-01-31T08:09:54;99187.53;;;16.85;44.14
12897;BME280;6516;35.028;32.372;2023-01-31T08:12:22;99189.34;;;17.14;45.17
12897;BME280;6516;35.028;32.372;2023-01-31T08:14:49;99177.78;;;17.29;42.87
12897;BME280;6516;35.028;32.372;2023-01-31T08:17:17;99189.47;;;17.26;43.08
12897;BME280;6516;35.028;32.372;2023-01-31T08:19:45;99184.03;;;16.84;43.50
12897;BME280;6516;35.028;32.372;2023-01-31T08:22:13;99190.03;;;16.88;44.04
12897;BME280;6516;35.028;32.372;2023-01-31T08:24:41;99193.44;;;16.90;44.99
12897;BME280;6516;35.028;32.372;2023-01-31T08:27:10;99192.75;;;17.16;45.93
12897;BME280;6516;35.028;32.372;2023-01-31T08:29:38;99185.38;;;17.35;44.84
12897;BME280;6516;35.028;32.372;2023-01-31T08:32:05;99186.59;;;17.73;44.80
12897;BME280;6516;35.028;32.372;2023-01-31T08:34:33;99196.53;;;18.25;43.88
12897;BME280;6516;35.028;32.372;2023-01-31T08:37:01;99192.38;;;18.35;44.36
12897;BME280;6516;35.028;32.372;2023-01-31T08:39:28;99200.81;;;18.28;45.51
12897;BME280;6516;35.028;32.372;2023-01-31T08:41:56;99190.78;;;17.91;44.51
12897;BME280;6516;35.028;32.372;2023-01-31T08:44:25;99205.81;;;17.50;46.57
12897;BME280;6516;35.028;32.372;2023-01-31T08:46:53;99213.84;;;17.05;47.95
12897;BME280;6516;35.028;32.372;2023-01-31T08:49:21;99220.47;;;16.82;48.82
12897;BME280;6516;35.028;32.372;2023-01-31T08:51:49;99212.38;;;16.99;48.86
12897;BME280;6516;35.028;32.372;2023-01-31T08:54:16;99214.72;;;16.90;49.05
12897;BME280;6516;35.028;32.372;2023-01-31T08:56:44;99219.88;;;16.77;49.39
12897;BME280;6516;35.028;32.372;2023-01-31T08:59:12;99223.06;;;16.68;49.69
12897;BME280;6516;35.028;32.372;2023-01-31T09:01:41;99220.25;;;16.56;49.01
12897;BME280;6516;35.028;32.372;2023-01-31T09:04:11;99222.72;;;16.74;49.15
12897;BME280;6516;35.028;32.372;2023-01-31T09:06:38;99203.13;;;16.91;48.75
12897;BME280;6516;35.028;32.372;2023-01-31T09:09:06;99213.66;;;16.92;49.03
12897;BME280;6516;35.028;32.372;2023-01-31T09:11:35;99216.00;;;16.98;48.99
12897;BME280;6516;35.028;32.372;2023-01-31T09:14:04;99216.56;;;16.74;48.72
12897;BME280;6516;35.028;32.372;2023-01-31T09:16:32;99216.56;;;16.58;48.93
12897;BME280;6516;35.028;32.372;2023-01-31T09:19:01;99212.38;;;16.54;49.93
12897;BME280;6516;35.028;32.372;2023-01-31T09:21:29;99212.50;;;16.36;49.79
12897;BME280;6516;35.028;32.372;2023-01-31T09:23:58;99211.06;;;16.15;50.39
12897;BME280;6516;35.028;32.372;2023-01-31T09:26:28;99209.25;;;16.15;50.19
12897;BME280;6516;35.028;32.372;2023-01-31T09:28:56;99207.88;;;15.93;50.13
12897;BME280;6516;35.028;32.372;2023-01-31T09:31:26;99208.97;;;15.56;50.96
12897;BME280;6516;35.028;32.372;2023-01-31T09:33:54;99206.44;;;15.38;50.96
12897;BME280;6516;35.028;32.372;2023-01-31T09:36:23;99206.88;;;15.46;52.04
12897;BME280;6516;35.028;32.372;2023-01-31T09:38:55;99197.81;;;15.82;51.03
12897;BME280;6516;35.028;32.372;2023-01-31T09:41:28;99192.47;;;15.99;50.54
12897;BME280;6516;35.028;32.372;2023-01-31T09:44:01;99191.25;;;16.20;51.41
12897;BME280;6516;35.028;32.372;2023-01-31T09:46:35;99189.31;;;16.08;50.50
12897;BME280;6516;35.028;32.372;2023-01-31T09:49:06;99186.13;;;16.02;50.37
12897;BME280;6516;35.028;32.372;2023-01-31T09:51:38;99177.03;;;15.90;50.55
12897;BME280;6516;35.028;32.372;2023-01-31T09:54:16;99181.25;;;16.41;50.99
12897;BME280;6516;35.028;32.372;2023-01-31T09:56:53;99174.31;;;16.54;48.73
12897;BME280;6516;35.028;32.372;2023-01-31T09:59:38;99172.31;;;16.73;48.10
12897;BME280;6516;35.028;32.372;2023-01-31T10:02:33;99166.53;;;16.51;47.77
12897;BME280;6516;35.028;32.372;2023-01-31T10:05:18;99175.53;;;16.48;48.55
12897;BME280;6516;35.028;32.372;2023-01-31T10:08:00;99169.25;;;16.34;49.00
12897;BME280;6516;35.028;32.372;2023-01-31T10:10:36;99170.53;;;16.27;49.00
12897;BME280;6516;35.028;32.372;2023-01-31T10:13:11;99174.91;;;16.28;49.25
12897;BME280;6516;35.028;32.372;2023-01-31T10:15:47;99168.81;;;16.26;49.09
12897;BME280;6516;35.028;32.372;2023-01-31T10:18:21;99168.16;;;16.53;48.71
12897;BME280;6516;35.028;32.372;2023-01-31T10:20:54;99169.13;;;16.82;47.28
12897;BME280;6516;35.028;32.372;2023-01-31T10:23:29;99152.59;;;16.91;46.80
12897;BME280;6516;35.028;32.372;2023-01-31T10:26:00;99158.78;;;16.62;46.79
12897;BME280;6516;35.028;32.372;2023-01-31T10:28:34;99165.56;;;16.52;47.84
12897;BME280;6516;35.028;32.372;2023-01-31T10:31:10;99160.84;;;16.57;47.40
12897;BME280;6516;35.028;32.372;2023-01-31T10:33:47;99163.66;;;16.69;47.43
12897;BME280;6516;35.028;32.372;2023-01-31T10:36:23;99159.38;;;16.67;46.22
12897;BME280;6516;35.028;32.372;2023-01-31T10:39:03;99165.50;;;16.83;46.43
12897;BME280;6516;35.028;32.372;2023-01-31T10:41:40;99155.75;;;16.68;46.83
12897;BME280;6516;35.028;32.372;2023-01-31T10:44:19;99150.59;;;16.51;47.18
12897;BME280;6516;35.028;32.372;2023-01-31T10:46:51;99160.09;;;16.08;47.85
12897;BME280;6516;35.028;32.372;2023-01-31T10:49:26;99157.44;;;16.24;48.41
12897;BME280;6516;35.028;32.372;2023-01-31T10:52:11;99161.88;;;16.08;48.40
12897;BME280;6516;35.028;32.372;2023-01-31T10:54:58;99161.13;;;16.06;48.95
12897;BME280;6516;35.028;32.372;2023-01-31T10:57:31;99154.25;;;16.02;48.52
12897;BME280;6516;35.028;32.372;2023-01-31T10:59:59;99161.78;;;15.94;48.99
12897;BME280;6516;35.028;32.372;2023-01-31T11:02:28;99155.00;;;15.88;50.04
12897;BME280;6516;35.028;32.372;2023-01-31T11:04:58;99154.06;;;15.74;48.69
12897;BME280;6516;35.028;32.372;2023-01-31T11:07:28;99154.88;;;15.59;49.43
12897;BME280;6516;35.028;32.372;2023-01-31T11:09:58;99154.00;;;15.43;49.77
12897;BME280;6516;35.028;32.372;2023-01-31T11:12:40;99165.34;;;15.12;51.79
12897;BME280;6516;35.028;32.372;2023-01-31T11:15:15;99154.94;;;15.25;51.18
12897;BME280;6516;35.028;32.372;2023-01-31T11:17:44;99161.00;;;15.44;51.46
12897;BME280;6516;35.028;32.372;2023-01-31T11:20:21;99149.38;;;15.79;50.71
12897;BME280;6516;35.028;32.372;2023-01-31T11:22:51;99143.28;;;16.08;49.27
12897;BME280;6516;35.028;32.372;2023-01-31T11:25:22;99137.03;;;16.24;49.64
12897;BME280;6516;35.028;32.372;2023-01-31T11:27:53;99144.91;;;16.26;49.57
12897;BME280;6516;35.028;32.372;2023-01-31T11:30:26;99144.75;;;16.29;50.25
12897;BME280;6516;35.028;32.372;2023-01-31T11:32:56;99145.94;;;15.92;50.03
12897;BME280;6516;35.028;32.372;2023-01-31T11:35:27;99144.66;;;15.99;50.96
12897;BME280;6516;35.028;32.372;2023-01-31T11:37:58;99138.16;;;16.05;50.08
12897;BME280;6516;35.028;32.372;2023-01-31T11:40:29;99144.38;;;16.35;49.19
12897;BME280;6516;35.028;32.372;2023-01-31T11:43:00;99143.44;;;16.51;48.66
12897;BME280;6516;35.028;32.372;2023-01-31T11:45:30;99141.03;;;16.92;48.62
12897;BME280;6516;35.028;32.372;2023-01-31T11:48:04;99142.56;;;16.96;48.43
12897;BME280;6516;35.028;32.372;2023-01-31T11:50:38;99137.56;;;17.19;47.85
12897;BME280;6516;35.028;32.372;2023-01-31T11:53:15;99137.66;;;17.18;47.65
12897;BME280;6516;35.028;32.372;2023-01-31T11:55:48;99145.06;;;16.54;49.06
12897;BME280;6516;35.028;32.372;2023-01-31T11:58:18;99159.22;;;16.39;48.97
12897;BME280;6516;35.028;32.372;2023-01-31T12:00:52;99152.22;;;16.22;49.70
12897;BME280;6516;35.028;32.372;2023-01-31T12:03:22;99145.34;;;16.18;50.60
12897;BME280;6516;35.028;32.372;2023-01-31T12:05:51;99147.84;;;16.06;50.49
12897;BME280;6516;35.028;32.372;2023-01-31T12:08:31;99153.75;;;16.11;50.54
12897;BME280;6516;35.028;32.372;2023-01-31T12:11:05;99157.88;;;16.16;50.07
12897;BME280;6516;35.028;32.372;2023-01-31T12:13:45;99152.03;;;16.41;48.63
12897;BME280;6516;35.028;32.372;2023-01-31T12:16:18;99147.94;;;16.51;47.76
12897;BME280;6516;35.028;32.372;2023-01-31T12:18:58;99159.22;;;15.92;48.43
12897;BME280;6516;35.028;32.372;2023-01-31T12:21:50;99157.06;;;15.99;48.75
12897;BME280;6516;35.028;32.372;2023-01-31T12:24:31;99156.47;;;16.25;48.69
12897;BME280;6516;35.028;32.372;2023-01-31T12:27:13;99168.28;;;16.35;46.47
12897;BME280;6516;35.028;32.372;2023-01-31T12:30:06;99155.38;;;16.44;47.29
12897;BME280;6516;35.028;32.372;2023-01-31T12:32:52;99157.81;;;16.63;46.24
12897;BME280;6516;35.028;32.372;2023-01-31T12:35:43;99167.25;;;16.98;46.04
12897;BME280;6516;35.028;32.372;2023-01-31T12:38:37;99162.69;;;17.00;44.50
12897;BME280;6516;35.028;32.372;2023-01-31T12:41:18;99175.91;;;16.56;46.73
12897;BME280;6516;35.028;32.372;2023-01-31T12:44:05;99187.66;;;15.90;45.81
12897;BME280;6516;35.028;32.372;2023-01-31T12:47:03;99182.91;;;15.47;46.92
12897;BME280;6516;35.028;32.372;2023-01-31T12:49:50;99184.41;;;15.53;47.27
12897;BME280;6516;35.028;32.372;2023-01-31T12:52:40;99185.56;;;15.47;48.23
12897;BME280;6516;35.028;32.372;2023-01-31T12:55:21;99188.16;;;15.49;47.27
12897;BME280;6516;35.028;32.372;2023-01-31T12:58:05;99193.47;;;15.49;48.25
12897;BME280;6516;35.028;32.372;2023-01-31T13:00:51;99199.84;;;15.45;48.50
12897;BME280;6516;35.028;32.372;2023-01-31T13:03:31;99194.31;;;15.32;48.87
12897;BME280;6516;35.028;32.372;2023-01-31T13:06:07;99199.06;;;15.26;49.16
12897;BME280;6516;35.028;32.372;2023-01-31T13:08:43;99192.94;;;15.08;49.84
12897;BME280;6516;35.028;32.372;2023-01-31T13:11:16;99199.47;;;14.67;50.91
12897;BME280;6516;35.028;32.372;2023-01-31T13:13:49;99199.78;;;14.43;51.23
12897;BME280;6516;35.028;32.372;2023-01-31T13:16:25;99201.81;;;14.38;51.85
12897;BME280;6516;35.028;32.372;2023-01-31T13:18:59;99209.66;;;14.39;51.69
12897;BME280;6516;35.028;32.372;2023-01-31T13:21:32;99215.13;;;14.36;51.04
12897;BME280;6516;35.028;32.372;2023-01-31T13:24:08;99211.41;;;14.40;50.75
12897;BME280;6516;35.028;32.372;2023-01-31T13:26:42;99216.81;;;14.56;51.45
12897;BME280;6516;35.028;32.372;2023-01-31T13:29:14;99217.84;;;14.70;49.98
12897;BME280;6516;35.028;32.372;2023-01-31T13:31:54;99215.19;;;14.70;48.88